createdAt,value
2022-08-19T00:01:53.159Z,7.33
2022-08-19T00:04:28.529Z,7.03
2022-08-19T00:07:03.913Z,7.20
2022-08-19T00:09:35.117Z,7.30
2022-08-19T00:12:08.480Z,7.63
2022-08-19T00:14:42.206Z,7.17
2022-08-19T00:17:13.168Z,8.10
2022-08-19T00:19:43.386Z,7.67
2022-08-19T00:22:15.935Z,7.60
2022-08-19T00:24:50.821Z,7.27
2022-08-19T00:27:26.098Z,6.67
2022-08-19T00:29:59.515Z,7.23
2022-08-19T00:32:35.739Z,7.27
2022-08-19T00:35:05.152Z,7.77
2022-08-19T00:37:47.511Z,7.57
2022-08-19T00:40:18.351Z,7.67
2022-08-19T00:42:50.947Z,7.93
2022-08-19T00:45:24.597Z,8.50
2022-08-19T00:47:58.208Z,8.80
2022-08-19T00:50:27.960Z,8.40
2022-08-19T00:53:02.292Z,8.03
2022-08-19T00:55:38.334Z,7.43
2022-08-19T00:58:13.333Z,7.37
2022-08-19T01:00:42.976Z,8.00
2022-08-19T01:03:19.238Z,7.43
2022-08-19T01:05:51.502Z,8.30
2022-08-19T01:08:22.226Z,7.73
2022-08-19T01:10:53.815Z,8.07
2022-08-19T01:13:29.666Z,8.23
2022-08-19T01:16:19.607Z,8.57
2022-08-19T01:18:50.789Z,8.23
2022-08-19T01:21:24.404Z,8.03
2022-08-19T01:23:59.561Z,8.47
2022-08-19T01:26:31.260Z,8.43
2022-08-19T01:29:05.301Z,8.07
2022-08-19T01:31:34.723Z,8.87
2022-08-19T01:34:07.853Z,8.13
2022-08-19T01:36:40.017Z,7.67
2022-08-19T01:39:14.698Z,8.37
2022-08-19T01:41:44.100Z,8.00
2022-08-19T01:44:18.770Z,8.67
2022-08-19T01:46:50.826Z,8.13
2022-08-19T01:49:24.554Z,8.27
2022-08-19T01:51:54.931Z,8.33
2022-08-19T01:54:27.465Z,8.07
2022-08-19T01:57:02.871Z,8.07
2022-08-19T01:59:33.249Z,8.00
2022-08-19T02:02:02.814Z,7.53
2022-08-19T02:04:33.442Z,7.90
2022-08-19T02:07:05.126Z,8.10
2022-08-19T02:09:36.931Z,8.13
2022-08-19T02:12:08.253Z,7.57
2022-08-19T02:14:38.029Z,8.23
2022-08-19T02:17:10.417Z,7.80
2022-08-19T02:19:41.114Z,8.33
2022-08-19T02:22:12.583Z,7.63
2022-08-19T02:24:50.144Z,8.20
2022-08-19T02:27:23.650Z,8.37
2022-08-19T02:29:54.123Z,9.97
2022-08-19T02:32:23.780Z,8.70
2022-08-19T02:34:53.396Z,8.70
2022-08-19T02:37:40.085Z,7.70
2022-08-19T02:40:13.057Z,8.50
2022-08-19T02:42:43.956Z,8.33
2022-08-19T02:45:14.049Z,8.00
2022-08-19T02:47:44.049Z,8.90
2022-08-19T02:50:15.974Z,8.50
2022-08-19T02:52:45.254Z,8.30
2022-08-19T02:55:16.263Z,7.97
2022-08-19T02:57:48.501Z,8.60
2022-08-19T03:00:20.905Z,8.60
2022-08-19T03:02:51.956Z,8.20
2022-08-19T03:05:25.216Z,8.50
2022-08-19T03:08:17.559Z,8.07
2022-08-19T03:10:50.922Z,7.80
2022-08-19T03:13:21.175Z,8.30
2022-08-19T03:15:52.357Z,8.23
2022-08-19T03:18:23.135Z,8.30
2022-08-19T03:20:57.293Z,7.97
2022-08-19T03:23:27.094Z,8.17
2022-08-19T03:26:02.853Z,8.80
2022-08-19T03:28:51.218Z,9.00
2022-08-19T03:31:43.422Z,9.30
2022-08-19T03:34:16.624Z,9.03
2022-08-19T03:36:46.423Z,9.07
2022-08-19T03:39:16.885Z,9.47
2022-08-19T03:42:29.243Z,9.30
2022-08-19T03:44:47.958Z,8.97
2022-08-19T03:47:19.168Z,9.20
2022-08-19T03:49:51.569Z,8.50
2022-08-19T03:52:20.727Z,8.67
2022-08-19T03:54:50.001Z,8.17
2022-08-19T03:57:31.613Z,7.93
2022-08-19T04:00:13.495Z,8.10
2022-08-19T04:02:58.247Z,9.27
2022-08-19T04:05:31.189Z,10.00
2022-08-19T04:08:03.585Z,9.10
2022-08-19T04:10:39.468Z,9.90
2022-08-19T04:13:10.335Z,9.63
2022-08-19T04:15:44.270Z,9.53
2022-08-19T04:18:20.158Z,10.03
2022-08-19T04:20:51.248Z,9.10
2022-08-19T04:23:20.887Z,9.07
2022-08-19T04:25:50.524Z,9.20
2022-08-19T04:28:21.401Z,8.70
2022-08-19T04:30:53.045Z,8.80
2022-08-19T04:33:30.368Z,8.80
2022-08-19T04:36:00.247Z,8.83
2022-08-19T04:38:30.252Z,8.93
2022-08-19T04:41:19.937Z,8.73
2022-08-19T04:43:53.695Z,8.13
2022-08-19T04:46:40.053Z,9.03
2022-08-19T04:49:13.580Z,8.30
2022-08-19T04:51:44.669Z,9.37
2022-08-19T04:54:25.886Z,9.20
2022-08-19T04:57:09.870Z,9.47
2022-08-19T04:59:42.041Z,9.70
2022-08-19T05:02:12.096Z,10.03
2022-08-19T05:04:41.683Z,9.23
2022-08-19T05:07:13.006Z,9.50
2022-08-19T05:09:57.053Z,10.93
2022-08-19T05:12:31.133Z,9.27
2022-08-19T05:15:06.052Z,9.70
2022-08-19T05:17:38.654Z,9.77
2022-08-19T05:20:27.542Z,9.73
2022-08-19T05:22:58.505Z,8.53
2022-08-19T05:25:27.911Z,8.93
2022-08-19T05:28:05.103Z,8.73
2022-08-19T05:30:47.343Z,9.93
2022-08-19T05:33:17.247Z,11.53
2022-08-19T05:35:47.599Z,8.57
2022-08-19T05:38:19.160Z,8.70
2022-08-19T05:40:49.538Z,7.60
2022-08-19T05:43:20.126Z,8.00
2022-08-19T05:45:56.013Z,7.20
2022-08-19T05:48:27.939Z,8.07
2022-08-19T05:51:00.933Z,9.20
2022-08-19T05:53:31.297Z,8.17
2022-08-19T05:56:00.581Z,8.03
2022-08-19T05:58:34.181Z,9.10
2022-08-19T06:01:09.239Z,8.87
2022-08-19T06:03:50.264Z,8.17
2022-08-19T06:06:22.915Z,8.20
2022-08-19T06:08:54.957Z,7.63
2022-08-19T06:11:34.796Z,7.83
2022-08-19T06:14:07.800Z,9.67
2022-08-19T06:16:50.674Z,9.77
2022-08-19T06:19:34.439Z,8.30
2022-08-19T06:22:13.203Z,8.90
2022-08-19T06:24:45.367Z,8.27
2022-08-19T06:27:17.674Z,8.80
2022-08-19T06:29:48.137Z,8.10
2022-08-19T06:32:24.872Z,9.93
2022-08-19T06:34:58.099Z,8.70
2022-08-19T06:37:28.700Z,8.93
2022-08-19T06:40:01.706Z,9.87
2022-08-19T06:42:32.794Z,9.17
2022-08-19T06:45:09.315Z,11.33
2022-08-19T06:47:49.739Z,12.83
2022-08-19T06:50:24.990Z,12.23
2022-08-19T06:52:57.996Z,12.87
2022-08-19T06:55:34.487Z,12.90
2022-08-19T06:58:08.560Z,13.57
2022-08-19T07:00:39.060Z,11.37
2022-08-19T07:03:13.203Z,13.00
2022-08-19T07:05:47.815Z,14.52
2022-08-19T07:08:22.144Z,14.05
2022-08-19T07:10:51.661Z,13.67
2022-08-19T07:13:26.763Z,14.93
2022-08-19T07:16:05.596Z,14.60
2022-08-19T07:18:39.067Z,19.73
2022-08-19T07:21:16.509Z,16.10
2022-08-19T07:23:52.525Z,18.00
2022-08-19T07:26:27.849Z,17.00
2022-08-19T07:29:05.119Z,15.40
2022-08-19T07:31:38.498Z,18.45
2022-08-19T07:34:14.638Z,21.10
2022-08-19T07:36:48.090Z,16.23
2022-08-19T07:39:26.859Z,15.02
2022-08-19T07:42:03.454Z,20.95
2022-08-19T07:44:37.535Z,15.73
2022-08-19T07:47:08.378Z,16.33
2022-08-19T07:50:02.505Z,15.55
2022-08-19T07:52:31.814Z,15.02
2022-08-19T07:55:05.146Z,13.32
2022-08-19T07:57:35.302Z,12.48
2022-08-19T08:00:06.358Z,14.45
2022-08-19T08:02:38.031Z,11.73
2022-08-19T08:05:29.160Z,13.57
2022-08-19T08:08:35.760Z,13.02
2022-08-19T08:11:07.725Z,13.82
2022-08-19T08:13:39.056Z,12.85
2022-08-19T08:16:13.924Z,13.07
2022-08-19T08:18:50.302Z,12.55
2022-08-19T08:21:21.618Z,11.48
2022-08-19T08:23:55.672Z,10.98
2022-08-19T08:26:32.184Z,11.18
2022-08-19T08:29:12.284Z,15.05
2022-08-19T08:31:43.349Z,12.13
2022-08-19T08:34:16.832Z,12.45
2022-08-19T08:36:49.614Z,12.38
2022-08-19T08:39:23.441Z,10.45
2022-08-19T08:42:01.837Z,10.02
2022-08-19T08:47:37.371Z,10.82
2022-08-19T08:50:18.282Z,10.52
2022-08-19T08:52:58.969Z,9.98
2022-08-19T08:55:36.394Z,10.77
2022-08-19T08:58:08.842Z,10.15
2022-08-19T09:00:43.495Z,8.70
2022-08-19T09:03:23.153Z,11.18
2022-08-19T09:06:05.830Z,12.65
2022-08-19T09:09:01.628Z,13.55
2022-08-19T09:11:46.647Z,13.25
2022-08-19T09:14:49.757Z,10.88
2022-08-19T09:17:20.715Z,13.52
2022-08-19T09:19:56.476Z,10.43
2022-08-19T09:22:28.167Z,12.50
2022-08-19T09:25:01.576Z,12.68
2022-08-19T09:27:42.094Z,14.15
2022-08-19T09:33:04.415Z,16.77
2022-08-19T09:35:43.865Z,14.10
2022-08-19T09:38:27.821Z,15.82
2022-08-19T09:41:00.734Z,15.65
2022-08-19T09:43:33.793Z,16.27
2022-08-19T09:46:26.178Z,16.90
2022-08-19T09:49:02.990Z,16.60
2022-08-19T09:51:37.676Z,13.77
2022-08-19T09:54:11.439Z,13.48
2022-08-19T09:56:42.275Z,16.45
2022-08-19T09:59:15.598Z,15.38
2022-08-19T10:01:51.749Z,16.95
2022-08-19T10:04:51.413Z,10.90
2022-08-19T10:07:22.214Z,11.60
2022-08-19T10:12:53.063Z,14.00
2022-08-19T10:15:29.280Z,12.57
2022-08-19T10:18:01.494Z,13.93
2022-08-19T10:20:43.374Z,12.32
2022-08-19T10:23:26.487Z,11.45
2022-08-19T10:26:07.607Z,10.18
2022-08-19T10:28:40.510Z,10.63
2022-08-19T10:31:15.991Z,13.77
2022-08-19T10:33:53.510Z,13.20
2022-08-19T10:36:35.724Z,11.80
2022-08-19T10:39:10.622Z,10.70
2022-08-19T10:41:50.928Z,10.52
2022-08-19T10:44:37.134Z,9.75
2022-08-19T10:47:17.908Z,13.15
2022-08-19T10:50:19.833Z,11.95
2022-08-19T10:52:55.223Z,12.70
2022-08-19T10:55:50.104Z,11.75
2022-08-19T10:58:28.872Z,10.43
2022-08-19T11:01:03.456Z,13.18
2022-08-19T11:03:32.964Z,12.38
2022-08-19T11:06:11.243Z,11.48
2022-08-19T11:08:50.154Z,10.02
2022-08-19T11:11:22.777Z,11.10
2022-08-19T11:14:24.928Z,13.48
2022-08-19T11:17:09.950Z,11.63
2022-08-19T11:22:41.500Z,12.45
2022-08-19T11:25:17.682Z,16.42
2022-08-19T11:27:49.642Z,11.63
2022-08-19T11:30:24.092Z,10.55
2022-08-19T11:33:06.227Z,13.40
2022-08-19T11:35:50.735Z,11.80
2022-08-19T11:38:33.339Z,14.30
2022-08-19T11:41:14.019Z,15.18
2022-08-19T11:43:55.188Z,14.77
2022-08-19T11:46:37.330Z,13.02
2022-08-19T11:49:14.065Z,12.95
2022-08-19T11:51:47.275Z,14.65
2022-08-19T11:54:21.014Z,12.75
2022-08-19T11:56:52.795Z,10.57
2022-08-19T11:59:30.608Z,11.73
2022-08-19T12:02:07.208Z,9.18
2022-08-19T12:04:39.382Z,10.73
2022-08-19T12:07:09.728Z,13.00
2022-08-19T12:09:42.874Z,10.05
2022-08-19T12:12:19.212Z,10.15
2022-08-19T12:14:59.451Z,11.57
2022-08-19T12:17:32.328Z,13.93
2022-08-19T12:20:10.870Z,12.13
2022-08-19T12:22:55.112Z,11.65
2022-08-19T12:25:34.110Z,13.40
2022-08-19T12:28:13.839Z,14.40
2022-08-19T12:30:46.030Z,13.65
2022-08-19T12:33:19.354Z,13.30
2022-08-19T12:35:58.597Z,11.05
2022-08-19T12:38:32.260Z,7.75
2022-08-19T12:41:02.351Z,7.80
2022-08-19T12:43:51.746Z,7.72
2022-08-19T12:46:25.393Z,8.20
2022-08-19T12:49:01.009Z,6.80
2022-08-19T12:51:38.742Z,9.63
2022-08-19T12:54:10.388Z,7.47
2022-08-19T12:56:40.441Z,9.13
2022-08-19T12:59:19.450Z,8.02
2022-08-19T13:01:53.136Z,12.07
2022-08-19T13:04:32.772Z,6.00
2022-08-19T13:07:13.031Z,6.78
2022-08-19T13:09:46.176Z,5.82
2022-08-19T13:12:26.239Z,5.68
2022-08-19T13:15:02.500Z,6.20
2022-08-19T13:17:32.126Z,6.15
2022-08-19T13:20:11.062Z,5.28
2022-08-19T13:22:48.208Z,5.47
2022-08-19T13:25:23.976Z,5.05
2022-08-19T13:28:13.935Z,5.40
2022-08-19T13:31:11.156Z,5.13
2022-08-19T13:33:45.342Z,5.78
2022-08-19T13:36:25.573Z,4.38
2022-08-19T13:38:55.418Z,5.75
2022-08-19T13:41:29.982Z,4.00
2022-08-19T13:44:14.391Z,6.45
2022-08-19T13:46:58.246Z,3.65
2022-08-19T13:49:31.206Z,6.35
2022-08-19T13:52:07.199Z,5.40
2022-08-19T13:54:40.435Z,5.45
2022-08-19T13:57:15.834Z,4.97
2022-08-19T13:59:47.647Z,6.50
2022-08-19T14:02:22.597Z,8.45
2022-08-19T14:05:00.504Z,4.18
2022-08-19T14:07:48.605Z,4.85
2022-08-19T14:10:19.230Z,5.80
2022-08-19T14:12:48.977Z,5.32
2022-08-19T14:15:26.212Z,10.02
2022-08-19T14:18:01.351Z,8.18
2022-08-19T14:20:42.421Z,5.55
2022-08-19T14:23:15.037Z,4.13
2022-08-19T14:25:50.559Z,5.05
2022-08-19T14:28:24.951Z,3.42
2022-08-19T14:31:01.490Z,4.18
2022-08-19T14:33:35.928Z,6.53
2022-08-19T14:36:14.439Z,7.38
2022-08-19T14:38:54.400Z,7.20
2022-08-19T14:41:31.730Z,6.40
2022-08-19T14:44:43.012Z,6.57
2022-08-19T14:47:33.822Z,10.55
2022-08-19T14:50:17.727Z,9.88
2022-08-19T14:52:52.164Z,7.32
2022-08-19T14:55:32.710Z,8.85
2022-08-19T14:58:08.816Z,7.82
2022-08-19T15:00:39.303Z,9.23
2022-08-19T15:03:09.450Z,7.00
2022-08-19T15:05:45.553Z,9.18
2022-08-19T15:08:29.711Z,14.43
2022-08-19T15:11:06.574Z,12.40
2022-08-19T15:13:38.246Z,9.77
2022-08-19T15:16:18.007Z,7.40
2022-08-19T15:18:56.618Z,8.77
2022-08-19T15:21:42.956Z,7.82
2022-08-19T15:24:17.137Z,7.47
2022-08-19T15:26:49.077Z,6.15
2022-08-19T15:29:31.562Z,7.07
2022-08-19T15:32:02.374Z,7.55
2022-08-19T15:34:37.921Z,7.65
2022-08-19T15:37:14.947Z,9.40
2022-08-19T15:39:47.312Z,7.88
2022-08-19T15:42:29.588Z,8.10
2022-08-19T15:44:59.740Z,7.07
2022-08-19T15:47:35.888Z,7.00
2022-08-19T15:50:10.658Z,5.55
2022-08-19T15:52:58.431Z,6.93
2022-08-19T15:55:34.134Z,7.25
2022-08-19T15:58:29.010Z,5.60
2022-08-19T16:01:20.709Z,6.68
2022-08-19T16:04:14.848Z,7.57
2022-08-19T16:06:49.810Z,8.13
2022-08-19T16:09:31.487Z,9.20
2022-08-19T16:12:11.426Z,8.18
2022-08-19T16:14:41.578Z,5.72
2022-08-19T16:17:15.851Z,6.22
2022-08-19T16:19:54.256Z,7.55
2022-08-19T16:22:35.666Z,9.75
2022-08-19T16:25:15.741Z,8.43
2022-08-19T16:27:54.231Z,6.05
2022-08-19T16:30:54.039Z,11.48
2022-08-19T16:33:26.694Z,9.15
2022-08-19T16:36:28.167Z,8.20
2022-08-19T16:39:09.510Z,6.60
2022-08-19T16:41:49.384Z,6.22
2022-08-19T16:44:32.597Z,5.43
2022-08-19T16:47:21.298Z,6.50
2022-08-19T16:49:55.642Z,8.98
2022-08-19T16:52:29.214Z,10.32
2022-08-19T16:55:11.468Z,11.98
2022-08-19T16:57:48.424Z,10.20
2022-08-19T17:00:34.794Z,8.68
2022-08-19T17:03:19.018Z,8.57
2022-08-19T17:05:57.471Z,8.80
2022-08-19T17:08:31.859Z,11.10
2022-08-19T17:11:17.758Z,10.63
2022-08-19T17:14:06.448Z,7.55
2022-08-19T17:16:46.627Z,9.05
2022-08-19T17:19:19.270Z,10.68
2022-08-19T17:21:49.234Z,12.38
2022-08-19T17:24:28.280Z,15.52
2022-08-19T17:27:02.967Z,11.10
2022-08-19T17:29:45.024Z,13.77
2022-08-19T17:32:25.129Z,12.10
2022-08-19T17:34:59.013Z,11.13
2022-08-19T17:37:42.001Z,11.45
2022-08-19T17:40:24.985Z,9.85
2022-08-19T17:43:06.709Z,10.82
2022-08-19T17:45:38.382Z,8.60
2022-08-19T17:48:13.992Z,11.00
2022-08-19T17:50:48.418Z,8.90
2022-08-19T17:53:22.788Z,19.92
2022-08-19T17:55:59.273Z,13.52
2022-08-19T17:58:34.316Z,8.63
2022-08-19T18:01:19.242Z,10.05
2022-08-19T18:03:59.456Z,9.70
2022-08-19T18:06:37.131Z,12.82
2022-08-19T18:09:15.005Z,12.80
2022-08-19T18:11:52.406Z,8.70
2022-08-19T18:14:33.321Z,9.32
2022-08-19T18:17:10.256Z,10.73
2022-08-19T18:19:51.625Z,10.35
2022-08-19T18:22:34.507Z,10.50
2022-08-19T18:25:09.880Z,15.70
2022-08-19T18:27:44.119Z,10.18
2022-08-19T18:30:15.746Z,9.88
2022-08-19T18:32:55.842Z,9.45
2022-08-19T18:35:34.011Z,10.88
2022-08-19T18:38:33.998Z,14.35
2022-08-19T18:41:26.468Z,14.63
2022-08-19T18:44:17.561Z,14.50
2022-08-19T18:47:06.552Z,14.85
2022-08-19T18:49:48.921Z,17.42
2022-08-19T18:52:23.816Z,13.60
2022-08-19T18:55:02.486Z,14.35
2022-08-19T18:57:42.775Z,14.43
2022-08-19T19:00:20.098Z,15.10
2022-08-19T19:03:04.508Z,17.45
2022-08-19T19:05:37.277Z,18.58
2022-08-19T19:08:15.903Z,15.85
2022-08-19T19:10:51.038Z,15.43
2022-08-19T19:13:31.184Z,16.92
2022-08-19T19:16:05.398Z,16.55
2022-08-19T19:18:49.307Z,17.50
2022-08-19T19:21:55.049Z,15.77
2022-08-19T19:24:29.847Z,13.75
2022-08-19T19:27:07.544Z,14.18
2022-08-19T19:29:39.234Z,14.43
2022-08-19T19:32:12.813Z,12.55
2022-08-19T19:34:57.931Z,15.13
2022-08-19T19:37:28.891Z,13.48
2022-08-19T19:40:07.272Z,17.83
2022-08-19T19:42:44.087Z,14.48
2022-08-19T19:45:39.994Z,17.45
2022-08-19T19:48:13.899Z,15.38
2022-08-19T19:50:43.426Z,14.20
2022-08-19T19:53:19.596Z,16.55
2022-08-19T19:56:00.165Z,14.50
2022-08-19T19:58:30.719Z,13.80
2022-08-19T20:01:02.490Z,13.15
2022-08-19T20:06:37.082Z,11.73
2022-08-19T20:09:10.926Z,14.77
2022-08-19T20:11:53.989Z,13.52
2022-08-19T20:14:33.433Z,13.00
2022-08-19T20:17:18.256Z,16.40
2022-08-19T20:19:59.610Z,14.07
2022-08-19T20:22:35.307Z,11.95
2022-08-19T20:25:16.108Z,10.90
2022-08-19T20:28:06.868Z,11.27
2022-08-19T20:30:46.502Z,10.07
2022-08-19T20:33:25.466Z,13.57
2022-08-19T20:36:06.048Z,9.77
2022-08-19T20:38:44.915Z,12.73
2022-08-19T20:41:31.366Z,9.55
2022-08-19T20:44:23.579Z,9.60
2022-08-19T20:47:03.403Z,9.38
2022-08-19T20:49:40.564Z,9.55
2022-08-19T20:52:12.683Z,10.02
2022-08-19T20:54:56.949Z,9.68
2022-08-19T20:57:42.188Z,8.68
2022-08-19T21:00:18.066Z,8.18
2022-08-19T21:02:52.884Z,8.50
2022-08-19T21:05:30.554Z,8.65
2022-08-19T21:08:03.616Z,8.25
2022-08-19T21:10:41.763Z,7.55
2022-08-19T21:13:14.869Z,8.15
2022-08-19T21:15:47.141Z,8.02
2022-08-19T21:18:20.246Z,7.30
2022-08-19T21:20:55.539Z,8.65
2022-08-19T21:23:33.934Z,7.82
2022-08-19T21:26:09.357Z,8.43
2022-08-19T21:28:40.540Z,8.52
2022-08-19T21:31:24.929Z,8.32
2022-08-19T21:33:58.784Z,8.70
2022-08-19T21:36:35.752Z,9.85
2022-08-19T21:39:13.694Z,10.23
2022-08-19T21:41:54.617Z,8.60
2022-08-19T21:44:25.958Z,9.95
2022-08-19T21:46:58.195Z,9.98
2022-08-19T21:49:29.909Z,11.18
2022-08-19T21:52:08.876Z,10.15
2022-08-19T21:54:43.454Z,9.50
2022-08-19T21:57:19.332Z,9.48
2022-08-19T22:00:08.646Z,9.55
2022-08-19T22:02:39.609Z,10.27
2022-08-19T22:05:12.247Z,10.38
2022-08-19T22:07:50.787Z,9.73
2022-08-19T22:10:24.975Z,9.48
2022-08-19T22:12:56.652Z,9.63
2022-08-19T22:15:30.206Z,10.65
2022-08-19T22:18:09.271Z,11.82
2022-08-19T22:20:45.260Z,11.40
2022-08-19T22:23:14.550Z,10.07
2022-08-19T22:25:49.583Z,10.63
2022-08-19T22:28:32.796Z,10.88
2022-08-19T22:31:05.140Z,11.48
2022-08-19T22:33:37.714Z,13.25
2022-08-19T22:36:14.573Z,12.30
2022-08-19T22:38:54.532Z,12.93
2022-08-19T22:41:28.649Z,12.52
2022-08-19T22:44:02.812Z,11.75
2022-08-19T22:46:36.533Z,12.75
2022-08-19T22:49:05.948Z,15.93
2022-08-19T22:51:55.615Z,14.25
2022-08-19T22:54:25.026Z,14.50
2022-08-19T22:57:00.540Z,14.48
2022-08-19T22:59:31.978Z,14.23
2022-08-19T23:02:02.986Z,15.50
2022-08-19T23:04:32.622Z,15.68
2022-08-19T23:07:05.113Z,16.92
2022-08-19T23:09:34.756Z,16.02
2022-08-19T23:12:06.792Z,14.48
2022-08-19T23:14:37.889Z,15.00
2022-08-19T23:17:17.521Z,15.77
2022-08-19T23:19:53.970Z,14.77
2022-08-19T23:22:29.487Z,18.77
2022-08-19T23:25:05.266Z,15.50
2022-08-19T23:27:52.418Z,14.52
2022-08-19T23:30:29.776Z,16.38
2022-08-19T23:33:13.048Z,16.15
2022-08-19T23:35:48.230Z,14.77
2022-08-19T23:38:20.263Z,14.45
2022-08-19T23:40:52.819Z,15.48
2022-08-19T23:43:30.062Z,15.13
2022-08-19T23:45:59.883Z,18.13
2022-08-19T23:48:34.805Z,18.65
2022-08-19T23:51:05.751Z,20.25
2022-08-19T23:53:39.850Z,19.70
2022-08-19T23:56:12.007Z,17.08
2022-08-19T23:58:43.570Z,19.67
